createdAt,value
2018-12-18T11:20:50.274Z,62
2018-12-18T11:22:50.535Z,47
2018-12-18T11:24:49.694Z,47
2018-12-18T11:26:50.023Z,47
2018-12-18T11:28:50.180Z,22
2018-12-18T11:30:50.325Z,41
2018-12-18T11:32:50.593Z,41
2018-12-18T11:40:50.417Z,61
2018-12-18T11:42:50.537Z,61
2018-12-18T11:44:49.733Z,33
2018-12-18T11:46:50.061Z,33
2018-12-18T11:48:50.176Z,33
2018-12-18T11:54:50.375Z,22
2018-12-18T11:56:49.706Z,21
2018-12-18T11:58:49.874Z,43
2018-12-18T12:00:49.990Z,23
2018-12-18T12:02:50.114Z,23
2018-12-18T12:04:49.704Z,38
2018-12-18T12:06:50.020Z,35
2018-12-18T12:08:50.190Z,20
2018-12-18T12:10:50.332Z,26
2018-12-18T12:12:50.483Z,41
2018-12-18T12:14:50.669Z,41
2018-12-18T12:16:50.032Z,41
2018-12-18T12:18:50.209Z,38
2018-12-18T12:20:50.339Z,27
2018-12-18T12:22:50.397Z,68
2018-12-18T12:24:50.518Z,103
2018-12-18T12:26:49.816Z,103
2018-12-18T13:16:49.859Z,38
2018-12-18T13:18:50.050Z,29
2018-12-18T13:20:50.231Z,37
2018-12-18T13:22:50.525Z,24
2018-12-18T13:24:50.670Z,24
2018-12-18T13:26:50.257Z,34
2018-12-18T13:28:50.424Z,39
2018-12-18T13:30:50.507Z,21
2018-12-18T13:32:49.701Z,32
2018-12-18T13:34:50.329Z,43
2018-12-18T13:36:49.790Z,74
2018-12-18T13:38:49.952Z,74
2018-12-18T13:40:50.163Z,75
2018-12-18T13:42:50.306Z,75
